Kathmandu, Nepal
Current Conditions -  °F | °C
As of 7:50 AM on Sunday 28 Dec 2014 (Local Time) from VNKT Reporting Station
Haze Haze  
Wind Chill:   Ceiling: Unl
Heat Index:   Visibility: 1.2mi
Dew Point:   Wind: 0mph
Humidity: 87%   Direction: NA
Pressure: 30.21"   Gusts: NA
Location:  27.71°N, 85.31°E
Report Text: VNKT 280250Z 00000KT 2000 BR FEW015 06/04 Q1023 NOSIG
Loading
Personal Weather Stations






























Interactive Weather Map New forecast layout! Learn more

10-Day Weather Forecast

Advertisements
Track Severe Weather on mobile